createdAt,value
2022-12-01T00:00:24.348Z,8.90
2022-12-01T00:03:26.249Z,8.80
2022-12-01T00:06:27.883Z,8.77
2022-12-01T00:09:48.018Z,9.20
2022-12-01T00:12:49.770Z,9.18
2022-12-01T00:15:51.333Z,9.15
2022-12-01T00:18:52.941Z,9.10
2022-12-01T00:21:54.596Z,9.30
2022-12-01T00:24:56.144Z,8.82
2022-12-01T00:27:57.786Z,8.70
2022-12-01T00:31:00.163Z,9.00
2022-12-01T00:34:02.487Z,9.30
2022-12-01T00:37:06.279Z,8.35
2022-12-01T00:40:08.477Z,9.43
2022-12-01T00:43:10.067Z,9.27
2022-12-01T00:46:11.651Z,9.30
2022-12-01T00:49:13.847Z,8.85
2022-12-01T00:52:16.118Z,9.23
2022-12-01T00:55:17.776Z,9.57
2022-12-01T00:58:19.412Z,8.45
2022-12-01T01:01:21.117Z,8.87
2022-12-01T01:04:22.818Z,9.75
2022-12-01T01:07:24.445Z,8.63
2022-12-01T01:10:26.019Z,9.03
2022-12-01T01:13:27.775Z,8.60
2022-12-01T01:16:29.430Z,9.00
2022-12-01T01:19:31.033Z,8.50
2022-12-01T01:22:32.602Z,8.63
2022-12-01T01:25:34.165Z,8.27
2022-12-01T01:28:36.061Z,8.45
2022-12-01T01:31:41.136Z,8.10
2022-12-01T01:34:42.681Z,8.05
2022-12-01T01:37:44.294Z,7.93
2022-12-01T01:40:46.262Z,7.77
2022-12-01T01:43:51.805Z,7.82
2022-12-01T01:46:57.870Z,8.18
2022-12-01T01:50:05.245Z,7.82
2022-12-01T01:53:11.193Z,8.50
2022-12-01T01:56:12.832Z,7.72
2022-12-01T01:59:16.265Z,8.27
2022-12-01T02:02:21.931Z,8.13
2022-12-01T02:05:25.547Z,8.80
2022-12-01T02:08:27.124Z,7.55
2022-12-01T02:11:48.510Z,7.70
2022-12-01T02:15:17.038Z,7.93
2022-12-01T02:18:22.829Z,8.30
2022-12-01T02:21:27.351Z,8.15
2022-12-01T02:24:50.260Z,7.68
2022-12-01T02:28:05.864Z,7.45
2022-12-01T02:31:36.610Z,7.90
2022-12-01T02:34:43.716Z,7.60
2022-12-01T02:38:10.239Z,7.03
2022-12-01T02:41:23.150Z,8.43
2022-12-01T02:44:34.410Z,7.73
2022-12-01T02:47:36.902Z,7.72
2022-12-01T02:50:39.049Z,7.00
2022-12-01T02:53:40.911Z,7.80
2022-12-01T02:56:44.381Z,7.47
2022-12-01T02:59:48.836Z,8.18
2022-12-01T03:03:05.838Z,8.00
2022-12-01T03:06:24.078Z,7.10
2022-12-01T03:09:49.162Z,7.95
2022-12-01T03:13:18.422Z,7.47
2022-12-01T03:16:27.430Z,7.73
2022-12-01T03:19:42.324Z,7.10
2022-12-01T03:22:48.316Z,7.43
2022-12-01T03:25:51.936Z,6.88
2022-12-01T03:28:55.460Z,6.82
2022-12-01T03:32:05.812Z,8.25
2022-12-01T03:35:18.242Z,7.50
2022-12-01T03:38:23.924Z,7.20
2022-12-01T03:41:28.031Z,7.97
2022-12-01T03:44:45.635Z,7.03
2022-12-01T03:47:47.236Z,7.70
2022-12-01T03:50:52.192Z,7.22
2022-12-01T03:54:13.107Z,8.52
2022-12-01T03:57:17.808Z,8.00
2022-12-01T04:00:19.523Z,8.63
2022-12-01T04:03:24.262Z,7.38
2022-12-01T04:06:25.878Z,6.60
2022-12-01T04:09:27.539Z,7.90
2022-12-01T04:12:33.208Z,8.20
2022-12-01T04:15:34.780Z,7.53
2022-12-01T04:18:36.434Z,7.77
2022-12-01T04:21:38.027Z,7.85
2022-12-01T04:24:39.605Z,7.82
2022-12-01T04:27:41.203Z,7.90
2022-12-01T04:30:42.744Z,7.68
2022-12-01T04:33:44.309Z,7.50
2022-12-01T04:36:45.934Z,7.20
2022-12-01T04:39:47.923Z,8.00
2022-12-01T04:42:49.811Z,7.75
2022-12-01T04:45:51.383Z,7.68
2022-12-01T04:48:53.046Z,7.77
2022-12-01T04:51:54.812Z,8.20
2022-12-01T04:54:59.112Z,7.35
2022-12-01T04:58:02.499Z,7.78
2022-12-01T05:01:12.083Z,7.57
2022-12-01T05:04:14.104Z,7.78
2022-12-01T05:07:15.741Z,7.75
2022-12-01T05:10:19.130Z,7.30
2022-12-01T05:13:20.886Z,7.68
2022-12-01T05:16:24.708Z,7.93
2022-12-01T05:19:44.898Z,8.60
2022-12-01T05:23:05.007Z,7.85
2022-12-01T05:26:08.314Z,8.57
2022-12-01T05:29:10.079Z,8.07
2022-12-01T05:32:11.672Z,7.43
2022-12-01T05:35:13.242Z,8.38
2022-12-01T05:38:14.840Z,8.07
2022-12-01T05:41:16.457Z,8.73
2022-12-01T05:44:18.186Z,8.05
2022-12-01T05:47:19.767Z,8.40
2022-12-01T05:50:21.587Z,8.70
2022-12-01T05:53:23.240Z,8.68
2022-12-01T05:56:24.870Z,8.80
2022-12-01T05:59:26.590Z,8.75
2022-12-01T06:02:28.168Z,8.45
2022-12-01T06:05:29.706Z,8.75
2022-12-01T06:08:31.298Z,8.85
2022-12-01T06:11:32.874Z,8.53
2022-12-01T06:14:34.449Z,9.45
2022-12-01T06:17:40.139Z,8.45
2022-12-01T06:20:42.110Z,8.93
2022-12-01T06:23:43.690Z,8.32
2022-12-01T06:26:45.380Z,9.90
2022-12-01T06:29:46.957Z,9.52
2022-12-01T06:32:49.101Z,8.85
2022-12-01T06:36:00.443Z,9.52
2022-12-01T06:39:02.069Z,9.13
2022-12-01T06:42:03.895Z,9.20
2022-12-01T06:45:05.953Z,9.35
2022-12-01T06:48:08.546Z,9.70
2022-12-01T06:51:11.076Z,9.13
2022-12-01T06:54:12.995Z,9.20
2022-12-01T06:57:14.726Z,8.60
2022-12-01T07:00:16.997Z,8.75
2022-12-01T07:03:18.989Z,8.55
2022-12-01T07:06:20.828Z,9.20
2022-12-01T07:09:22.471Z,8.90
2022-12-01T07:12:24.219Z,9.07
2022-12-01T07:15:26.224Z,9.18
2022-12-01T07:18:28.010Z,8.50
2022-12-01T07:21:29.636Z,9.00
2022-12-01T07:24:31.399Z,9.25
2022-12-01T07:27:32.998Z,8.88
2022-12-01T07:30:34.662Z,7.90
2022-12-01T07:33:36.392Z,7.32
2022-12-01T07:36:38.080Z,7.93
2022-12-01T07:39:39.856Z,8.65
2022-12-01T07:42:41.972Z,8.30
2022-12-01T07:45:43.712Z,8.65
2022-12-01T07:48:45.359Z,9.20
2022-12-01T07:51:47.218Z,9.03
2022-12-01T07:54:48.975Z,8.55
2022-12-01T07:57:51.563Z,9.50
2022-12-01T08:00:53.561Z,9.00
2022-12-01T08:03:56.600Z,8.35
2022-12-01T08:06:58.163Z,8.38
2022-12-01T08:09:59.758Z,8.77
2022-12-01T08:13:01.366Z,8.77
2022-12-01T08:16:05.090Z,9.00
2022-12-01T08:19:06.703Z,8.73
2022-12-01T08:22:08.344Z,8.33
2022-12-01T08:25:09.997Z,8.75
2022-12-01T08:28:11.707Z,9.25
2022-12-01T08:31:19.048Z,8.65
2022-12-01T08:34:20.750Z,8.85
2022-12-01T08:37:22.366Z,8.40
2022-12-01T08:40:23.996Z,8.98
2022-12-01T08:43:56.041Z,8.40
2022-12-01T08:46:47.286Z,8.90
2022-12-01T08:49:49.311Z,9.25
2022-12-01T08:52:51.116Z,9.38
2022-12-01T08:55:52.824Z,9.48
2022-12-01T08:58:54.539Z,8.38
2022-12-01T09:01:57.440Z,9.20
2022-12-01T09:04:59.296Z,9.57
2022-12-01T09:08:19.550Z,8.57
2022-12-01T09:11:21.198Z,8.90
2022-12-01T09:14:23.099Z,8.65
2022-12-01T09:17:24.742Z,8.60
2022-12-01T09:20:26.388Z,8.80
2022-12-01T09:23:28.323Z,9.55
2022-12-01T09:26:30.193Z,9.40
2022-12-01T09:29:31.863Z,9.03
2022-12-01T09:32:33.563Z,9.85
2022-12-01T09:35:35.111Z,9.00
2022-12-01T09:38:37.526Z,9.53
2022-12-01T09:41:49.730Z,9.70
2022-12-01T09:44:52.664Z,9.27
2022-12-01T09:47:54.870Z,8.95
2022-12-01T09:50:56.530Z,9.57
2022-12-01T09:53:59.193Z,8.55
2022-12-01T09:57:00.892Z,9.75
2022-12-01T10:00:06.905Z,9.65
2022-12-01T10:03:33.064Z,9.73
2022-12-01T10:06:56.721Z,9.90
2022-12-01T10:09:59.939Z,9.52
2022-12-01T10:13:01.651Z,9.93
2022-12-01T10:16:11.134Z,10.17
2022-12-01T10:19:22.887Z,8.75
2022-12-01T10:23:02.036Z,9.77
2022-12-01T10:26:14.182Z,8.82
2022-12-01T10:29:28.462Z,8.97
2022-12-01T10:32:42.654Z,9.90
2022-12-01T10:35:44.292Z,9.93
2022-12-01T10:38:46.097Z,9.20
2022-12-01T10:41:48.928Z,9.97
2022-12-01T10:44:50.642Z,9.27
2022-12-01T10:48:10.497Z,9.40
2022-12-01T10:51:16.101Z,9.77
2022-12-01T10:54:18.032Z,9.98
2022-12-01T10:57:19.607Z,9.87
2022-12-01T11:03:58.901Z,10.55
2022-12-01T11:07:01.223Z,10.55
2022-12-01T11:10:19.733Z,9.48
2022-12-01T11:13:23.882Z,10.37
2022-12-01T11:16:37.782Z,10.45
2022-12-01T11:19:39.887Z,10.05
2022-12-01T11:22:41.936Z,9.38
2022-12-01T11:26:03.890Z,9.47
2022-12-01T11:29:07.808Z,10.23
2022-12-01T11:32:21.992Z,9.80
2022-12-01T11:35:25.732Z,9.90
2022-12-01T11:38:31.029Z,9.85
2022-12-01T11:41:32.605Z,9.60
2022-12-01T11:44:50.852Z,9.77
2022-12-01T11:48:29.699Z,10.15
2022-12-01T11:51:37.880Z,9.35
2022-12-01T11:54:39.563Z,9.77
2022-12-01T11:57:42.806Z,9.88
2022-12-01T12:00:50.706Z,9.18
2022-12-01T12:04:07.581Z,9.88
2022-12-01T12:07:33.995Z,9.45
2022-12-01T12:10:44.852Z,9.90
2022-12-01T12:14:32.281Z,9.57
2022-12-01T12:17:44.345Z,10.13
2022-12-01T12:21:08.510Z,9.85
2022-12-01T12:24:16.057Z,9.27
2022-12-01T12:27:36.355Z,9.05
2022-12-01T12:30:46.616Z,9.45
2022-12-01T12:34:00.611Z,8.77
2022-12-01T12:37:19.697Z,9.20
2022-12-01T12:40:30.550Z,8.45
2022-12-01T12:43:35.333Z,9.63
2022-12-01T12:47:03.367Z,9.23
2022-12-01T12:50:26.333Z,9.40
2022-12-01T12:53:31.542Z,9.18
2022-12-01T12:56:33.143Z,8.73
2022-12-01T12:59:40.995Z,8.82
2022-12-01T13:02:57.802Z,9.05
2022-12-01T13:06:02.595Z,8.90
2022-12-01T13:09:28.081Z,9.85
2022-12-01T13:12:31.460Z,8.15
2022-12-01T13:15:33.280Z,8.45
2022-12-01T13:18:53.274Z,8.45
2022-12-01T13:21:54.886Z,8.98
2022-12-01T13:24:56.674Z,7.63
2022-12-01T13:27:58.978Z,8.07
2022-12-01T13:31:05.903Z,8.60
2022-12-01T13:34:07.690Z,8.63
2022-12-01T13:37:10.035Z,8.25
2022-12-01T13:40:24.962Z,8.68
2022-12-01T13:43:26.524Z,8.25
2022-12-01T13:46:44.534Z,8.63
2022-12-01T13:49:47.747Z,8.00
2022-12-01T13:52:50.293Z,8.18
2022-12-01T13:56:08.376Z,8.13
2022-12-01T13:59:58.051Z,8.67
2022-12-01T14:03:19.323Z,8.77
2022-12-01T14:06:27.379Z,8.30
2022-12-01T14:09:33.197Z,8.52
2022-12-01T14:12:37.936Z,7.87
2022-12-01T14:15:42.556Z,7.85
2022-12-01T14:18:49.342Z,8.73
2022-12-01T14:21:52.405Z,7.53
2022-12-01T14:24:54.146Z,7.47
2022-12-01T14:28:03.183Z,7.97
2022-12-01T14:31:05.513Z,7.82
2022-12-01T14:34:18.936Z,8.27
2022-12-01T14:37:23.319Z,8.47
2022-12-01T14:40:25.606Z,8.60
2022-12-01T14:43:45.905Z,8.43
2022-12-01T14:47:01.832Z,8.18
2022-12-01T14:50:14.000Z,9.30
2022-12-01T14:53:23.915Z,8.20
2022-12-01T14:56:25.515Z,8.93
2022-12-01T14:59:27.420Z,8.65
2022-12-01T15:02:29.087Z,8.47
2022-12-01T15:05:32.478Z,8.80
2022-12-01T15:08:53.368Z,9.05
2022-12-01T15:11:58.759Z,8.73
2022-12-01T15:15:00.531Z,8.57
2022-12-01T15:18:02.581Z,8.88
2022-12-01T15:21:12.190Z,9.20
2022-12-01T15:24:24.966Z,8.50
2022-12-01T15:27:30.983Z,8.48
2022-12-01T15:30:32.536Z,8.65
2022-12-01T15:33:37.205Z,9.15
2022-12-01T15:36:39.119Z,8.90
2022-12-01T15:40:00.895Z,10.07
2022-12-01T15:43:18.132Z,9.25
2022-12-01T15:46:23.188Z,9.68
2022-12-01T15:49:27.663Z,9.77
2022-12-01T15:52:29.337Z,9.50
2022-12-01T15:55:33.351Z,9.50
2022-12-01T15:58:40.146Z,10.60
2022-12-01T16:01:42.659Z,9.30
2022-12-01T16:04:44.274Z,10.18
2022-12-01T16:11:14.582Z,9.67
2022-12-01T16:14:21.789Z,10.38
2022-12-01T16:17:24.193Z,10.60
2022-12-01T16:20:31.275Z,9.87
2022-12-01T16:23:32.876Z,10.57
2022-12-01T16:26:34.432Z,10.70
2022-12-01T16:29:56.601Z,11.35
2022-12-01T16:33:02.991Z,10.77
2022-12-01T16:36:04.773Z,11.38
2022-12-01T16:39:07.929Z,12.27
2022-12-01T16:42:17.339Z,11.20
2022-12-01T16:45:19.305Z,11.35
2022-12-01T16:48:20.934Z,12.18
2022-12-01T16:51:29.887Z,13.00
2022-12-01T16:54:37.352Z,12.88
2022-12-01T16:57:38.959Z,12.32
2022-12-01T17:00:40.749Z,12.32
2022-12-01T17:03:42.415Z,12.70
2022-12-01T17:06:43.979Z,13.63
2022-12-01T17:09:45.636Z,13.00
2022-12-01T17:12:47.300Z,13.90
2022-12-01T17:15:49.767Z,13.05
2022-12-01T17:18:51.440Z,13.93
2022-12-01T17:21:53.319Z,15.00
2022-12-01T17:24:55.611Z,14.40
2022-12-01T17:27:57.222Z,14.68
2022-12-01T17:31:02.496Z,15.35
2022-12-01T17:34:06.888Z,13.77
2022-12-01T17:37:08.503Z,14.73
2022-12-01T17:40:11.433Z,14.93
2022-12-01T17:43:13.113Z,15.10
2022-12-01T17:46:14.839Z,14.23
2022-12-01T17:49:16.451Z,15.32
2022-12-01T17:52:18.104Z,15.15
2022-12-01T17:55:19.774Z,14.45
2022-12-01T17:58:21.682Z,14.40
2022-12-01T18:01:29.797Z,15.27
2022-12-01T18:04:32.068Z,16.13
2022-12-01T18:07:33.710Z,14.25
2022-12-01T18:10:35.347Z,14.50
2022-12-01T18:13:38.349Z,14.60
2022-12-01T18:16:39.982Z,14.48
2022-12-01T18:19:41.556Z,14.73
2022-12-01T18:22:43.133Z,15.98
2022-12-01T18:25:44.716Z,15.00
2022-12-01T18:28:46.340Z,15.38
2022-12-01T18:31:47.967Z,14.82
2022-12-01T18:34:49.802Z,15.07
2022-12-01T18:37:51.707Z,14.50
2022-12-01T18:40:57.275Z,16.23
2022-12-01T18:43:58.858Z,15.88
2022-12-01T18:47:02.698Z,15.55
2022-12-01T18:50:04.791Z,14.82
2022-12-01T18:53:06.553Z,14.65
2022-12-01T18:56:11.788Z,14.87
2022-12-01T18:59:16.853Z,15.30
2022-12-01T19:02:18.548Z,13.70
2022-12-01T19:05:20.277Z,15.40
2022-12-01T19:08:22.039Z,13.13
2022-12-01T19:11:23.731Z,14.02
2022-12-01T19:14:26.644Z,14.50
2022-12-01T19:17:28.221Z,15.20
2022-12-01T19:20:29.879Z,12.90
2022-12-01T19:23:31.612Z,13.05
2022-12-01T19:26:33.175Z,12.93
2022-12-01T19:29:34.867Z,13.32
2022-12-01T19:32:36.727Z,14.15
2022-12-01T19:35:38.264Z,14.40
2022-12-01T19:38:40.095Z,13.75
2022-12-01T19:41:41.672Z,14.20
2022-12-01T19:44:43.275Z,14.57
2022-12-01T19:47:44.893Z,14.10
2022-12-01T19:50:46.586Z,13.98
2022-12-01T19:53:48.341Z,13.52
2022-12-01T19:56:49.907Z,14.03
2022-12-01T19:59:51.674Z,14.27
2022-12-01T20:02:53.261Z,15.55
2022-12-01T20:05:54.920Z,15.07
2022-12-01T20:08:58.133Z,15.18
2022-12-01T20:11:59.726Z,15.00
2022-12-01T20:15:01.546Z,13.63
2022-12-01T20:18:03.212Z,14.47
2022-12-01T20:21:16.217Z,14.68
2022-12-01T20:24:19.975Z,14.43
2022-12-01T20:27:21.575Z,14.00
2022-12-01T20:30:23.248Z,13.95
2022-12-01T20:33:25.314Z,15.32
2022-12-01T20:36:27.131Z,14.73
2022-12-01T20:39:31.446Z,16.75
2022-12-01T20:42:33.121Z,17.30
2022-12-01T20:45:34.778Z,16.58
2022-12-01T20:48:36.652Z,19.03
2022-12-01T20:51:38.309Z,17.55
2022-12-01T20:54:41.815Z,18.10
2022-12-01T20:57:43.365Z,18.43
2022-12-01T21:00:45.060Z,17.17
2022-12-01T21:03:47.017Z,18.23
2022-12-01T21:06:50.077Z,17.13
2022-12-01T21:09:51.856Z,17.05
2022-12-01T21:13:13.691Z,16.70
2022-12-01T21:16:28.134Z,17.10
2022-12-01T21:19:36.393Z,16.47
2022-12-01T21:22:37.988Z,16.73
2022-12-01T21:25:39.875Z,15.38
2022-12-01T21:28:43.064Z,14.90
2022-12-01T21:31:45.254Z,15.07
2022-12-01T21:34:47.589Z,15.30
2022-12-01T21:37:49.640Z,14.95
2022-12-01T21:40:51.255Z,14.50
2022-12-01T21:43:54.157Z,14.75
2022-12-01T21:46:56.789Z,12.90
2022-12-01T21:49:59.390Z,13.03
2022-12-01T21:53:01.322Z,13.90
2022-12-01T21:56:03.107Z,13.93
2022-12-01T21:59:22.296Z,13.85
2022-12-01T22:02:32.318Z,14.10
2022-12-01T22:05:37.425Z,13.93
2022-12-01T22:08:41.302Z,13.75
2022-12-01T22:11:44.566Z,14.03
2022-12-01T22:14:46.132Z,14.88
2022-12-01T22:17:47.842Z,16.35
2022-12-01T22:20:49.413Z,17.80
2022-12-01T22:24:14.563Z,17.63
2022-12-01T22:27:31.559Z,16.23
2022-12-01T22:30:33.171Z,17.35
2022-12-01T22:33:34.721Z,17.38
2022-12-01T22:36:36.302Z,18.33
2022-12-01T22:39:37.839Z,18.95
2022-12-01T22:42:39.398Z,18.60
2022-12-01T22:45:41.111Z,17.23
2022-12-01T22:48:45.222Z,18.67
2022-12-01T22:51:50.732Z,19.57
2022-12-01T22:54:52.517Z,17.45
2022-12-01T22:57:54.206Z,20.23
2022-12-01T23:00:57.976Z,18.20
2022-12-01T23:04:22.949Z,19.48
2022-12-01T23:07:35.536Z,19.00
2022-12-01T23:10:37.286Z,17.73
2022-12-01T23:13:38.834Z,18.17
2022-12-01T23:16:40.435Z,18.73
2022-12-01T23:19:42.078Z,18.48
2022-12-01T23:22:43.685Z,18.83
2022-12-01T23:25:45.670Z,18.30
2022-12-01T23:28:47.224Z,17.92
2022-12-01T23:31:48.896Z,17.08
2022-12-01T23:34:51.941Z,18.00
2022-12-01T23:37:56.160Z,19.50
2022-12-01T23:41:00.276Z,17.98
2022-12-01T23:44:05.501Z,17.57
2022-12-01T23:47:18.812Z,16.42
2022-12-01T23:50:22.528Z,16.30
2022-12-01T23:53:31.261Z,16.60
2022-12-01T23:56:32.848Z,16.85
2022-12-01T23:59:34.471Z,16.30
